Time;durP1;ratioP1;P1;durP2;ratioP2;P2;SDS_P1;SDS_P2;PMS_P1;PMS_P2;Temp;Humidity;BMP_temperature;BMP_pressure;BME280_temperature;BME280_humidity;BME280_pressure;Samples;Min_cycle;Max_cycle;Signal;HPM_P1;HPM_P2
2022/08/12 00:45:07;;;;;;;3.78;3.47;;;;;;;18.95;67.22;102066.78;5093508;27;20045;-72
2022/08/12 00:47:34;;;;;;;9.93;3.20;;;;;;;18.91;66.82;102063.50;5092614;28;20103;-72
2022/08/12 00:50:02;;;;;;;3.60;3.30;;;;;;;18.85;67.08;102067.31;5093820;28;20489;-72
2022/08/12 00:52:28;;;;;;;3.55;3.35;;;;;;;18.82;67.25;102063.59;5093200;28;20048;-72
2022/08/12 00:55:00;;;;;;;3.55;3.35;;;;;;;18.81;67.58;102064.81;5092247;28;20052;-72
2022/08/12 00:57:34;;;;;;;4.57;3.35;;;;;;;18.75;68.15;102063.25;5093516;28;20048;-72
2022/08/12 01:00:09;;;;;;;4.70;3.05;;;;;;;18.75;67.10;102061.28;5092139;28;20053;-72
2022/08/12 01:02:39;;;;;;;3.97;3.67;;;;;;;18.71;67.92;102062.69;5093065;28;20040;-72
2022/08/12 01:13:35;;;;;;;3.97;3.30;;;;;;;18.44;68.75;102067.06;5093317;28;20122;-72
2022/08/12 01:16:04;;;;;;;4.10;3.80;;;;;;;18.41;69.04;102062.59;5093037;28;20094;-74
2022/08/12 01:18:36;;;;;;;4.28;3.45;;;;;;;18.38;70.00;102058.16;5093062;28;20047;-72
2022/08/12 01:21:10;;;;;;;;;;;;;;;18.44;67.06;102060.94;5093676;28;20159;-72
2022/08/12 01:24:05;;;;;;;3.70;3.40;;;;;;;18.39;68.46;102065.03;5093291;28;20344;-72
2022/08/12 01:26:54;;;;;;;3.72;3.42;;;;;;;18.35;69.66;102066.41;5092936;28;20128;-72
2022/08/12 01:29:27;;;;;;;3.60;3.40;;;;;;;18.30;69.57;102065.09;5093155;28;20117;-72
2022/08/12 01:32:04;;;;;;;4.25;3.60;;;;;;;18.27;69.96;102066.75;5093023;28;20048;-72
2022/08/12 01:34:35;;;;;;;4.75;3.53;;;;;;;18.24;70.04;102067.69;5093185;28;20037;-72
2022/08/12 01:37:08;;;;;;;3.97;3.67;;;;;;;18.20;70.14;102064.41;5090598;28;20052;-72
2022/08/12 01:39:42;;;;;;;3.88;3.58;;;;;;;18.18;70.47;102069.53;5092948;28;20044;-72
2022/08/12 01:42:33;;;;;;;3.60;3.40;;;;;;;18.16;70.13;102063.09;5091939;28;20087;-72
2022/08/12 01:45:01;;;;;;;7.45;3.65;;;;;;;18.12;70.69;102065.97;5091465;28;20052;-72
2022/08/12 01:47:30;;;;;;;3.97;3.42;;;;;;;18.05;70.70;102066.31;5092325;28;20036;-73
2022/08/12 01:50:20;;;;;;;6.03;4.35;;;;;;;18.03;70.43;102059.88;5091145;28;20060;-72
2022/08/12 01:52:53;;;;;;;5.65;3.63;;;;;;;17.97;70.92;102054.41;5093059;28;20048;-72
2022/08/12 01:55:23;;;;;;;4.13;3.70;;;;;;;17.94;71.03;102058.03;5092897;28;20044;-73
2022/08/12 01:58:01;;;;;;;3.60;3.30;;;;;;;17.93;71.68;102059.22;5090673;28;20045;-72
2022/08/12 02:00:43;;;;;;;4.10;3.70;;;;;;;17.87;72.25;102055.66;5092355;28;20045;-72
2022/08/12 02:13:33;;;;;;;3.95;3.75;;;;;;;17.78;71.66;102053.03;5092529;28;20114;-72
2022/08/12 02:16:36;;;;;;;5.57;3.90;;;;;;;17.73;72.43;102054.38;5092638;28;20068;-72
2022/08/12 02:19:33;;;;;;;3.38;3.17;;;;;;;17.69;71.40;102055.75;5092297;28;20056;-73
2022/08/12 02:22:32;;;;;;;6.82;3.67;;;;;;;17.64;71.23;102051.72;5091085;28;20048;-72
2022/08/12 02:25:16;;;;;;;5.40;4.00;;;;;;;17.60;72.15;102041.09;5089749;28;20550;-73
2022/08/12 02:27:48;;;;;;;4.22;3.83;;;;;;;17.58;72.63;102042.78;5092032;28;20056;-72
2022/08/12 02:30:21;;;;;;;5.13;3.90;;;;;;;17.54;73.05;102040.25;5092476;28;20063;-72
2022/08/12 02:32:52;;;;;;;4.15;3.78;;;;;;;17.48;73.21;102031.31;5092565;28;20079;-73
2022/08/12 02:35:24;;;;;;;4.32;4.03;;;;;;;17.43;73.58;102036.56;5091647;28;20487;-72
2022/08/12 02:38:01;;;;;;;3.88;3.67;;;;;;;17.43;73.29;102028.50;5092066;28;20052;-72
2022/08/12 02:40:28;;;;;;;6.28;3.92;;;;;;;17.41;73.94;102025.50;5091811;28;20045;-72
2022/08/12 02:42:57;;;;;;;4.40;4.00;;;;;;;17.37;73.84;102028.38;5073697;28;20526;-72
2022/08/12 02:45:34;;;;;;;3.92;3.67;;;;;;;17.36;73.90;102018.06;5091768;28;20090;-72
2022/08/12 02:48:05;;;;;;;4.25;3.95;;;;;;;17.33;73.72;102023.16;5092121;28;20044;-72
2022/08/12 02:50:38;;;;;;;4.05;3.85;;;;;;;17.31;73.95;102032.88;5091809;28;20033;-72
2022/08/12 02:53:06;;;;;;;5.20;4.30;;;;;;;17.27;74.42;102026.91;5091811;28;20044;-72
2022/08/12 02:55:35;;;;;;;5.43;4.32;;;;;;;17.25;74.04;102029.31;5091607;28;20083;-72
2022/08/12 02:58:09;;;;;;;4.38;3.97;;;;;;;17.22;74.70;102028.25;5091842;28;20087;-72
2022/08/12 03:00:41;;;;;;;7.22;4.47;;;;;;;17.21;74.65;102032.16;5090686;28;20049;-72
2022/08/12 03:03:10;;;;;;;5.25;4.40;;;;;;;17.18;74.93;102022.31;5089557;28;20049;-72
2022/08/12 03:05:43;;;;;;;6.75;4.78;;;;;;;17.17;74.35;102028.16;5091717;28;20440;-72
2022/08/12 03:08:12;;;;;;;6.38;5.15;;;;;;;17.18;74.48;102026.97;5091731;28;20087;-71
2022/08/12 03:11:15;;;;;;;9.65;4.88;;;;;;;17.20;74.24;102019.16;5090866;28;20143;-72
2022/08/12 03:13:56;;;;;;;5.45;4.65;;;;;;;17.18;74.24;102018.88;5095176;28;20505;-72
2022/08/12 03:16:29;;;;;;;5.43;4.82;;;;;;;17.16;75.06;102027.41;5095252;28;20041;-72
2022/08/12 03:18:58;;;;;;;5.25;4.85;;;;;;;17.15;74.67;102025.91;5094637;28;20098;-72
2022/08/12 03:21:25;;;;;;;5.70;4.80;;;;;;;17.12;75.31;102029.53;5093371;28;20041;-72
2022/08/12 03:24:16;;;;;;;6.35;4.80;;;;;;;17.11;75.10;102032.66;5093590;28;20080;-72
2022/08/12 03:26:46;;;;;;;7.47;5.20;;;;;;;17.10;75.54;102029.22;5093872;28;20183;-72
2022/08/12 03:29:15;;;;;;;6.68;5.38;;;;;;;17.10;75.22;102033.84;5076966;28;20045;-72
2022/08/12 03:31:42;;;;;;;6.20;5.20;;;;;;;17.05;75.53;102027.16;5071361;28;20555;-72
2022/08/12 03:34:13;;;;;;;6.22;5.25;;;;;;;17.02;76.07;102028.03;5073982;28;20041;-73
2022/08/12 03:36:41;;;;;;;5.35;4.63;;;;;;;17.00;76.08;102030.44;5074638;28;20041;-72
2022/08/12 03:42:05;;;;;;;5.43;4.80;;;;;;;16.96;75.40;102016.41;5074870;28;20049;-72
2022/08/12 04:01:51;;;;;;;6.75;5.22;;;;;;;16.72;77.15;102018.25;5073888;28;20478;-73
2022/08/12 04:04:17;;;;;;;9.77;5.13;;;;;;;16.73;76.93;102017.06;5074258;28;20056;-72
2022/08/12 04:06:44;;;;;;;6.15;5.47;;;;;;;16.70;77.98;102017.97;5073973;28;20118;-73
2022/08/12 04:09:12;;;;;;;8.13;5.18;;;;;;;16.67;77.95;102009.59;5074153;28;20045;-73
2022/08/12 04:14:28;;;;;;;6.28;5.13;;;;;;;16.64;78.38;102012.44;5073892;28;20045;-73
2022/08/12 04:16:56;;;;;;;5.22;4.72;;;;;;;16.60;78.13;102011.81;5073191;28;20533;-73
2022/08/12 04:19:24;;;;;;;6.32;5.18;;;;;;;16.57;78.47;102013.47;5073611;28;20056;-73
2022/08/12 04:21:52;;;;;;;5.72;5.30;;;;;;;16.57;78.50;102007.34;5072025;28;20057;-73
2022/08/12 04:24:33;;;;;;;5.85;5.32;;;;;;;16.54;78.62;102010.94;5072363;28;20514;-73
2022/08/12 04:27:07;;;;;;;6.03;5.35;;;;;;;16.51;78.17;102011.84;5073510;28;20115;-72
2022/08/12 04:29:34;;;;;;;8.82;5.10;;;;;;;16.49;79.04;102017.66;5073439;28;20053;-72
2022/08/12 04:32:20;;;;;;;6.95;5.05;;;;;;;16.46;78.43;102023.19;5073883;28;20535;-73
2022/08/12 04:34:47;;;;;;;6.95;5.38;;;;;;;16.42;78.98;102017.22;5073934;28;20041;-73
2022/08/12 04:37:15;;;;;;;7.25;5.35;;;;;;;16.45;79.85;102021.69;5073373;28;20049;-72
2022/08/12 04:39:43;;;;;;;7.72;5.10;;;;;;;16.43;78.81;102010.63;5073588;28;20102;-73
2022/08/12 04:42:10;;;;;;;6.97;5.22;;;;;;;16.44;79.17;102014.81;5073507;28;20552;-73
2022/08/12 04:44:36;;;;;;;5.78;5.18;;;;;;;16.47;78.60;102019.31;5073003;28;20049;-73
2022/08/12 04:47:03;;;;;;;7.00;5.13;;;;;;;16.48;78.56;102012.72;5071913;28;20544;-73
2022/08/12 04:49:32;;;;;;;7.18;5.30;;;;;;;16.50;78.97;102019.16;5073257;28;20041;-73
2022/08/12 04:51:59;;;;;;;6.03;5.53;;;;;;;16.51;78.60;102017.22;5072213;28;20052;-73
2022/08/12 04:54:26;;;;;;;5.97;5.55;;;;;;;16.51;79.15;102017.94;5071745;28;20053;-73
2022/08/12 04:56:53;;;;;;;5.68;5.22;;;;;;;16.53;78.75;102022.88;5073260;28;20045;-73
2022/08/12 04:59:34;;;;;;;5.53;4.90;;;;;;;16.55;78.68;102023.94;5072885;28;20052;-73
2022/08/12 05:02:18;;;;;;;6.00;5.47;;;;;;;16.56;78.78;102022.72;5071693;28;20049;-73
2022/08/12 05:04:50;;;;;;;6.13;5.60;;;;;;;16.60;79.46;102019.88;5072840;28;20837;-73
2022/08/12 05:07:16;;;;;;;6.20;5.70;;;;;;;16.64;78.67;102029.31;5055246;28;20071;-73
2022/08/12 05:09:43;;;;;;;9.60;5.80;;;;;;;16.68;78.95;102018.41;5072985;28;20498;-73
2022/08/12 05:12:39;;;;;;;8.32;5.78;;;;;;;16.77;78.06;102023.03;5073439;28;20076;-73
2022/08/12 05:15:07;;;;;;;19.83;6.68;;;;;;;16.86;78.82;102020.31;5071235;28;20152;-73
2022/08/12 05:17:54;;;;;;;11.85;5.82;;;;;;;18.53;74.20;102017.72;5071152;28;20072;-73
2022/08/12 05:20:22;;;;;;;7.38;5.63;;;;;;;20.70;65.52;102016.44;5073007;28;20049;-72
2022/08/12 05:22:49;;;;;;;6.20;5.65;;;;;;;22.29;59.09;102017.03;5073107;28;20052;-71
2022/08/12 05:25:22;;;;;;;7.72;6.20;;;;;;;23.63;54.67;102029.03;5072798;28;20095;-71
2022/08/12 05:27:49;;;;;;;6.47;5.50;;;;;;;24.47;51.66;102026.63;5071159;28;20045;-73
2022/08/12 05:30:29;;;;;;;5.82;5.10;;;;;;;25.26;49.12;102028.16;5071111;28;20059;-74
2022/08/12 05:32:56;;;;;;;;;;;;;;;26.47;50.46;102031.81;5073265;28;20049;-74
2022/08/12 05:35:25;;;;;;;9.57;5.90;;;;;;;26.66;45.49;102031.03;5072017;28;20018;-74
2022/08/12 05:38:54;;;;;;;9.30;5.63;;;;;;;27.14;44.46;102019.78;5072700;28;20099;-73
2022/08/12 05:40:38;;;;;;;5.70;5.28;;;;;;;27.64;42.77;102022.78;5072195;28;20041;-75
2022/08/12 05:43:05;;;;;;;10.32;5.55;;;;;;;27.94;42.16;102025.88;5071734;28;20068;-74
2022/08/12 05:45:32;;;;;;;7.20;5.40;;;;;;;28.25;41.82;102026.94;5071020;28;20049;-74
2022/08/12 05:47:59;;;;;;;7.15;5.10;;;;;;;28.43;41.30;102027.97;5071083;28;20060;-74
2022/08/12 05:50:25;;;;;;;10.90;5.57;;;;;;;28.60;41.35;102033.06;5072545;28;20049;-73
2022/08/12 05:52:52;;;;;;;9.43;5.55;;;;;;;28.60;39.72;102039.28;5072380;28;20480;-73
2022/08/12 05:55:19;;;;;;;12.15;5.65;;;;;;;28.69;39.85;102040.81;5070702;28;20041;-74
2022/08/12 05:57:55;;;;;;;5.63;5.20;;;;;;;29.00;40.11;102041.78;5072266;28;20049;-74
2022/08/12 06:00:24;;;;;;;8.50;6.00;;;;;;;28.96;39.29;102047.59;5072435;28;20036;-74
2022/08/12 06:02:55;;;;;;;7.40;5.50;;;;;;;29.13;39.24;102045.16;5071711;28;20128;-74
2022/08/12 06:05:22;;;;;;;12.38;5.63;;;;;;;29.19;38.50;102039.53;5070862;28;20486;-77
2022/08/12 06:07:52;;;;;;;15.88;5.70;;;;;;;28.79;39.77;102045.25;5072009;28;20084;-77
2022/08/12 06:10:29;;;;;;;12.20;6.20;;;;;;;28.58;40.05;102039.06;5072182;28;20048;-77
2022/08/12 06:13:01;;;;;;;6.38;5.88;;;;;;;28.44;40.77;102037.66;5070008;28;20103;-75
2022/08/12 06:15:28;;;;;;;6.53;5.90;;;;;;;28.42;40.21;102040.19;5071972;28;20125;-76
2022/08/12 06:18:04;;;;;;;18.52;5.80;;;;;;;27.98;41.05;102039.97;5071740;28;20045;-75
2022/08/12 06:20:42;;;;;;;6.80;5.70;;;;;;;27.76;41.28;102049.38;5072000;28;20099;-75
2022/08/12 06:23:09;;;;;;;6.30;5.90;;;;;;;27.37;41.75;102044.66;5071903;28;20486;-75
2022/08/12 06:25:36;;;;;;;11.43;6.28;;;;;;;27.01;42.78;102046.34;5071495;28;20045;-75
2022/08/12 06:28:13;;;;;;;10.40;6.57;;;;;;;26.65;43.31;102043.22;5071659;28;20045;-75
2022/08/12 06:30:40;;;;;;;8.18;6.30;;;;;;;26.05;44.72;102041.59;5071895;28;20056;-76
2022/08/12 06:33:07;;;;;;;9.20;6.35;;;;;;;25.99;44.99;102034.75;5070393;28;20453;-75
2022/08/12 06:35:50;;;;;;;6.68;5.97;;;;;;;25.79;45.44;102047.66;5071955;28;20045;-74
2022/08/12 06:38:24;;;;;;;6.25;5.75;;;;;;;25.69;46.53;102045.78;5070791;28;20132;-75
2022/08/12 06:43:44;;;;;;;11.93;6.40;;;;;;;25.25;46.70;102048.47;5071727;28;20458;-76
2022/08/12 06:46:31;;;;;;;6.47;5.88;;;;;;;25.12;47.27;102047.63;5072502;28;20714;-75
2022/08/12 06:48:58;;;;;;;9.65;6.57;;;;;;;25.13;47.65;102046.38;5056968;28;20461;-74
2022/08/12 06:51:29;;;;;;;8.98;6.00;;;;;;;25.11;47.22;102051.63;5074955;28;20073;-74
2022/08/12 06:53:57;;;;;;;7.70;6.45;;;;;;;25.06;47.49;102044.22;5073840;28;20037;-74
2022/08/12 06:56:24;;;;;;;6.38;5.85;;;;;;;25.07;48.27;102041.00;5074294;28;20098;-74
2022/08/12 06:59:12;;;;;;;8.73;6.50;;;;;;;24.99;47.93;102039.34;5074580;28;20076;-74
2022/08/12 07:01:39;;;;;;;7.50;6.65;;;;;;;24.89;46.91;102030.72;5074802;28;20048;-73
2022/08/12 07:04:15;;;;;;;6.90;6.28;;;;;;;25.01;48.62;102025.94;5074958;28;20572;-72
2022/08/12 07:07:01;;;;;;;16.10;6.72;;;;;;;25.04;48.19;102024.94;5075082;28;20041;-75
2022/08/12 07:09:28;;;;;;;8.27;6.78;;;;;;;25.06;47.93;102022.44;5072851;28;20045;-74
2022/08/12 07:12:18;;;;;;;7.13;6.43;;;;;;;25.18;47.97;102019.09;5074209;28;20121;-75
2022/08/12 07:14:50;;;;;;;6.85;6.28;;;;;;;25.28;47.63;102014.00;5074443;28;20473;-75
2022/08/12 07:17:18;;;;;;;7.80;6.88;;;;;;;25.40;47.51;102026.28;5073781;28;20484;-75
2022/08/12 07:19:45;;;;;;;14.80;6.22;;;;;;;25.44;47.60;102028.72;5074606;28;20115;-74
2022/08/12 07:22:15;;;;;;;8.68;5.82;;;;;;;25.53;47.20;102022.91;5074602;28;20045;-74
2022/08/12 07:24:42;;;;;;;16.20;6.10;;;;;;;25.59;48.12;102013.41;5072716;28;20045;-74
2022/08/12 07:27:08;;;;;;;10.55;6.47;;;;;;;25.72;47.44;102014.75;5073898;28;20111;-77
2022/08/12 07:29:35;;;;;;;7.55;6.65;;;;;;;25.87;46.62;102023.25;5072537;28;20064;-77
2022/08/12 07:32:23;;;;;;;12.38;6.20;;;;;;;25.99;45.95;102021.13;5074585;28;20049;-77
2022/08/12 07:34:53;;;;;;;7.13;6.60;;;;;;;26.04;46.02;102023.75;5072654;28;20072;-77
2022/08/12 07:37:20;;;;;;;10.00;6.47;;;;;;;26.10;45.74;102026.41;5074423;28;20099;-77
2022/08/12 07:39:46;;;;;;;10.20;5.95;;;;;;;26.21;46.59;102026.97;5072754;28;20049;-78
2022/08/12 07:42:24;;;;;;;6.15;5.75;;;;;;;26.27;44.97;102032.34;5074399;28;20126;-78
2022/08/12 07:44:52;;;;;;;11.80;6.03;;;;;;;26.38;44.95;102028.75;5072409;28;20055;-77
2022/08/12 07:47:18;;;;;;;15.73;7.18;;;;;;;26.41;43.71;102027.69;5071891;28;20110;-76
2022/08/12 07:49:45;;;;;;;13.02;5.93;;;;;;;26.53;44.11;102035.19;5074034;28;20537;-76
2022/08/12 07:52:41;;;;;;;11.73;6.43;;;;;;;26.68;43.53;102042.16;5074319;28;20073;-78
2022/08/12 07:55:09;;;;;;;17.55;6.13;;;;;;;26.84;43.98;102038.41;5074131;28;20045;-76
2022/08/12 07:57:47;;;;;;;9.88;6.30;;;;;;;27.11;43.88;102047.41;5073649;28;20056;-76
2022/08/12 08:00:15;;;;;;;7.50;5.88;;;;;;;27.28;43.50;102050.56;5073013;28;20087;-76
2022/08/12 08:02:41;;;;;;;7.32;6.55;;;;;;;27.30;42.70;102052.75;5073527;28;20560;-76
2022/08/12 08:05:08;;;;;;;8.43;6.78;;;;;;;27.55;41.75;102051.28;5074136;28;20075;-77
2022/08/12 08:07:34;;;;;;;15.80;6.90;;;;;;;27.61;41.24;102045.72;5071645;28;20053;-78
2022/08/12 08:10:05;;;;;;;17.63;6.30;;;;;;;27.71;41.67;102044.00;5073813;28;20095;-74
2022/08/12 08:15:19;;;;;;;11.15;6.07;;;;;;;27.92;41.00;102047.56;5074260;28;20083;-79
2022/08/12 08:18:01;;;;;;;11.30;5.63;;;;;;;28.19;40.36;102045.44;5055236;28;20616;-77
2022/08/12 08:20:32;;;;;;;9.20;6.32;;;;;;;28.34;39.60;102044.91;5070745;28;20055;-75
2022/08/12 08:23:06;;;;;;;6.78;5.93;;;;;;;28.43;39.09;102042.41;5072765;28;20099;-74
2022/08/12 08:25:37;;;;;;;11.48;6.22;;;;;;;28.44;39.38;102045.88;5073298;28;20466;-76
2022/08/12 08:28:05;;;;;;;;;;;;;;;28.76;40.25;102051.09;5073648;28;20048;-73
2022/08/12 08:30:32;;;;;;;13.68;6.13;;;;;;;28.85;38.40;102043.13;5073165;28;19991;-72
2022/08/12 08:32:59;;;;;;;8.73;5.82;;;;;;;28.81;37.85;102045.47;5071761;28;20091;-72
2022/08/12 08:35:26;;;;;;;9.85;5.78;;;;;;;28.81;39.14;102048.22;5072641;28;20409;-77
2022/08/12 08:38:14;;;;;;;12.27;5.80;;;;;;;29.07;38.16;102044.56;5057093;28;20052;-78
2022/08/12 08:44:03;;;;;;;13.20;5.95;;;;;;;29.26;37.21;102041.53;5073302;28;20131;-78
2022/08/12 08:46:33;;;;;;;8.23;5.53;;;;;;;29.25;38.74;102051.03;5073235;28;20041;-78
2022/08/12 08:49:00;;;;;;;6.72;5.38;;;;;;;29.42;36.82;102047.88;5071475;28;20486;-78
2022/08/12 08:51:26;;;;;;;9.27;5.20;;;;;;;29.38;37.75;102045.47;5072865;28;20052;-78
2022/08/12 08:53:53;;;;;;;13.77;5.05;;;;;;;29.52;37.32;102049.56;5073155;28;20045;-78
2022/08/12 08:56:20;;;;;;;8.95;5.55;;;;;;;29.55;37.45;102049.78;5073492;28;20459;-78
2022/08/12 08:58:48;;;;;;;9.48;5.18;;;;;;;29.69;37.98;102048.34;5071930;28;20485;-78
2022/08/12 09:01:19;;;;;;;10.65;5.20;;;;;;;29.71;37.19;102052.00;5073525;28;20041;-79
2022/08/12 09:03:47;;;;;;;15.50;5.50;;;;;;;29.76;36.97;102055.88;5071436;28;20517;-77
2022/08/12 09:06:33;;;;;;;13.10;4.97;;;;;;;29.79;36.63;102050.03;5072653;28;20080;-78
2022/08/12 09:09:04;;;;;;;7.32;4.47;;;;;;;30.02;35.89;102049.38;5070457;28;20056;-78
2022/08/12 09:14:42;;;;;;;17.23;4.90;;;;;;;30.59;35.88;102038.84;5072811;28;20049;-80
2022/08/12 09:17:13;;;;;;;10.07;4.90;;;;;;;30.71;35.51;102042.69;5073241;28;20041;-76
2022/08/12 09:19:50;;;;;;;6.55;5.03;;;;;;;30.76;35.28;102038.28;5072760;28;20124;-77
2022/08/12 09:22:23;;;;;;;12.45;4.72;;;;;;;31.01;36.41;102036.38;5072890;28;20052;-78
2022/08/12 09:24:54;;;;;;;21.98;6.82;;;;;;;30.89;33.22;102034.56;5072726;28;20868;-77
2022/08/12 09:27:25;;;;;;;8.48;4.25;;;;;;;31.08;33.67;102030.16;5071157;28;20076;-77
2022/08/12 09:30:14;;;;;;;7.95;4.55;;;;;;;31.30;34.24;102034.13;5071216;28;20098;-77
2022/08/12 09:32:49;;;;;;;7.07;4.13;;;;;;;31.37;33.78;102040.88;5071227;28;20045;-78
2022/08/12 09:35:43;;;;;;;6.90;4.20;;;;;;;31.50;33.39;102035.88;5070491;28;20598;-78
2022/08/12 09:38:16;;;;;;;10.35;4.20;;;;;;;31.43;33.87;102024.91;5054503;28;20394;-77
2022/08/12 09:40:56;;;;;;;13.38;4.30;;;;;;;31.64;34.30;102028.09;5071023;28;20064;-77
2022/08/12 09:46:31;;;;;;;14.63;3.90;;;;;;;31.67;31.11;102024.25;5070952;28;20123;-78
2022/08/12 09:49:00;;;;;;;13.57;3.85;;;;;;;31.69;31.64;102023.69;5070094;28;20130;-77
2022/08/12 09:51:38;;;;;;;7.10;3.65;;;;;;;31.91;31.84;102027.63;5071008;28;20072;-79
2022/08/12 09:54:11;;;;;;;7.20;3.63;;;;;;;31.96;32.42;102019.16;5069132;28;20136;-78
2022/08/12 09:56:57;;;;;;;9.38;3.58;;;;;;;32.32;29.60;102021.47;5070556;28;20121;-79
2022/08/12 09:59:44;;;;;;;4.50;3.80;;;;;;;32.51;29.38;102023.69;5070537;28;20544;-79
2022/08/12 10:02:38;;;;;;;5.97;3.58;;;;;;;32.63;28.79;102010.91;5071520;28;20049;-81
2022/08/12 10:05:15;;;;;;;7.28;3.55;;;;;;;32.95;28.53;102007.28;5070243;28;20057;-82
2022/08/12 10:07:46;;;;;;;13.43;3.85;;;;;;;33.17;28.37;102005.56;5070906;28;20059;-82
2022/08/12 10:10:12;;;;;;;7.20;3.67;;;;;;;33.23;27.53;102002.53;5070791;28;20049;-84
2022/08/12 10:15:45;;;;;;;11.73;3.80;;;;;;;33.34;27.51;101996.53;5070568;28;20156;-75
2022/08/12 10:18:31;;;;;;;10.52;4.40;;;;;;;33.26;26.71;101993.84;5071918;28;20041;-76
2022/08/12 10:20:58;;;;;;;7.00;3.63;;;;;;;33.29;26.15;102000.28;5074340;28;20048;-79
2022/08/12 10:23:27;;;;;;;5.28;3.40;;;;;;;33.32;26.59;101993.63;5057415;28;20478;-76
2022/08/12 10:32:20;;;;;;;6.55;3.67;;;;;;;33.69;25.18;101978.56;5073853;28;20470;-77
2022/08/12 10:35:08;;;;;;;10.85;3.60;;;;;;;33.77;25.04;101976.44;5060217;28;20080;-76
2022/08/12 10:37:34;;;;;;;6.28;3.42;;;;;;;33.77;24.74;101968.13;5073699;28;20522;-76
2022/08/12 10:40:21;;;;;;;12.25;3.72;;;;;;;33.91;25.03;101965.03;5060170;28;20506;-76
2022/08/12 10:45:42;;;;;;;6.40;3.85;;;;;;;33.69;27.13;101953.00;5075462;28;20072;-76
2022/08/12 10:48:11;;;;;;;8.07;3.78;;;;;;;33.78;26.22;101944.03;5074719;28;20053;-76
2022/08/12 10:50:53;;;;;;;10.45;3.60;;;;;;;33.88;25.52;101939.28;5073898;28;20045;-79
2022/08/12 10:53:33;;;;;;;6.78;3.60;;;;;;;34.13;25.26;101945.31;5073923;28;20053;-79
2022/08/12 10:56:16;;;;;;;5.68;3.20;;;;;;;34.15;23.91;101939.19;5075210;28;20049;-79
2022/08/12 10:58:45;;;;;;;7.28;3.55;;;;;;;34.19;25.19;101931.22;5057001;28;20084;-80
2022/08/12 11:01:17;;;;;;;5.10;3.97;;;;;;;34.15;24.29;101930.91;5056523;28;20107;-79
2022/08/12 11:04:04;;;;;;;9.15;3.33;;;;;;;33.95;24.47;101932.91;5074443;28;20112;-82
2022/08/12 11:06:52;;;;;;;6.78;3.40;;;;;;;34.05;25.61;101924.63;5059837;28;20144;-79
2022/08/12 11:09:40;;;;;;;5.80;3.40;;;;;;;34.30;24.32;101924.41;5073113;28;20191;-74
2022/08/12 11:12:28;;;;;;;5.38;3.22;;;;;;;34.57;22.44;101915.97;5074818;28;20565;-75
2022/08/12 11:15:15;;;;;;;20.73;4.18;;;;;;;34.55;21.81;101913.81;5074742;28;20441;-74
2022/08/12 11:17:47;;;;;;;4.13;2.80;;;;;;;34.67;22.53;101903.63;5072953;28;20270;-78
2022/08/12 11:20:21;;;;;;;5.00;3.17;;;;;;;34.57;21.47;101908.41;5073350;28;20053;-79
2022/08/12 11:22:58;;;;;;;6.18;3.05;;;;;;;34.62;21.37;101909.44;5073307;28;20136;-79
2022/08/12 11:25:25;;;;;;;8.82;2.80;;;;;;;34.52;20.73;101901.13;5056103;28;20493;-78
2022/08/12 11:28:13;;;;;;;9.00;3.13;;;;;;;34.36;20.18;101895.19;5072910;28;20140;-77
2022/08/12 11:30:41;;;;;;;6.53;2.95;;;;;;;34.39;20.75;101896.06;5073773;28;20049;-79
2022/08/12 11:33:08;;;;;;;2.90;2.70;;;;;;;34.50;20.27;101897.50;5071233;28;20037;-79
2022/08/12 11:35:49;;;;;;;3.58;3.28;;;;;;;34.37;20.89;101888.34;5071881;28;20133;-76
2022/08/12 11:38:21;;;;;;;5.45;3.47;;;;;;;34.53;21.07;101891.53;5071481;28;20115;-77
2022/08/12 11:40:48;;;;;;;3.50;3.10;;;;;;;34.44;21.08;101901.28;5072843;28;20056;-77
2022/08/12 11:43:14;;;;;;;4.57;3.28;;;;;;;34.38;20.82;101897.38;5072027;28;21220;-78
2022/08/12 11:45:45;;;;;;;;;;;;;;;34.56;21.76;101887.59;5072648;28;20481;-75
2022/08/12 11:48:12;;;;;;;6.28;2.90;;;;;;;34.35;20.38;101887.47;5073130;28;20399;-76
2022/08/12 11:50:42;;;;;;;8.57;3.10;;;;;;;34.24;21.56;101882.50;5072917;28;20596;-76
2022/08/12 11:53:09;;;;;;;3.95;2.85;;;;;;;34.20;20.45;101876.69;5072555;28;20103;-75
2022/08/12 11:55:55;;;;;;;8.82;3.38;;;;;;;34.27;20.49;101882.06;5073340;28;20060;-78
2022/08/12 11:58:22;;;;;;;5.85;3.28;;;;;;;34.03;21.31;101875.50;5071832;28;20158;-75
2022/08/12 12:01:09;;;;;;;3.55;2.95;;;;;;;34.10;20.99;101882.91;5073119;28;20896;-75
2022/08/12 12:03:56;;;;;;;3.90;2.70;;;;;;;34.04;21.51;101876.94;5071955;28;20137;-76
2022/08/12 12:06:23;;;;;;;8.38;3.10;;;;;;;34.02;20.95;101867.78;5072277;28;20049;-75
2022/08/12 12:08:50;;;;;;;9.52;3.95;;;;;;;33.91;20.27;101869.09;5073694;28;20053;-75
2022/08/12 12:11:21;;;;;;;3.47;3.10;;;;;;;33.92;21.14;101862.25;5072796;28;20080;-75
2022/08/12 12:13:48;;;;;;;3.20;2.90;;;;;;;33.88;20.91;101867.50;5073593;28;20095;-75
2022/08/12 12:16:35;;;;;;;14.18;12.70;;;;;;;33.87;20.97;101868.78;5073608;28;20045;-78
2022/08/12 12:19:05;;;;;;;7.03;4.15;;;;;;;33.82;21.56;101858.75;5071009;28;20052;-79
2022/08/12 12:21:31;;;;;;;7.72;3.20;;;;;;;33.96;21.82;101859.81;5071179;28;20107;-77
2022/08/12 12:24:16;;;;;;;4.20;3.28;;;;;;;33.90;21.04;101861.38;5070797;28;20064;-78
2022/08/12 12:26:49;;;;;;;7.95;2.63;;;;;;;33.87;21.06;101866.03;5072092;28;20045;-77
2022/08/12 12:29:30;;;;;;;3.15;2.92;;;;;;;33.72;20.42;101858.69;5070442;28;20053;-79
2022/08/12 12:32:18;;;;;;;4.32;3.20;;;;;;;33.78;20.94;101850.88;5069649;28;20627;-78
2022/08/12 12:34:54;;;;;;;4.72;3.13;;;;;;;33.74;20.90;101855.38;5068700;28;20052;-78
2022/08/12 12:37:52;;;;;;;6.85;3.70;;;;;;;33.64;21.33;101847.06;5069778;28;20076;-79
2022/08/12 12:40:39;;;;;;;6.38;3.30;;;;;;;33.51;21.33;101841.94;5071071;28;20060;-77
2022/08/12 12:43:07;;;;;;;2.95;2.75;;;;;;;33.40;21.26;101845.97;5070011;28;20049;-78
2022/08/12 12:45:38;;;;;;;3.45;2.50;;;;;;;33.40;21.57;101845.97;5070037;28;20099;-79
2022/08/12 12:48:08;;;;;;;3.08;2.88;;;;;;;33.53;21.80;101852.41;5072643;28;20088;-77
2022/08/12 12:50:46;;;;;;;3.08;2.78;;;;;;;33.43;21.73;101842.06;5068687;28;20111;-78
2022/08/12 12:53:20;;;;;;;8.00;2.90;;;;;;;33.29;21.48;101837.50;5068664;28;20045;-79
2022/08/12 12:56:14;;;;;;;6.75;3.42;;;;;;;33.27;21.76;101840.84;5071343;28;20124;-78
2022/08/12 12:58:41;;;;;;;3.85;3.25;;;;;;;33.21;21.58;101834.09;5070745;28;20056;-79
2022/08/12 13:01:10;;;;;;;2.95;2.83;;;;;;;33.17;22.00;101831.06;5054412;28;20801;-78
2022/08/12 13:03:55;;;;;;;2.95;2.75;;;;;;;33.24;20.99;101825.41;5069791;28;20057;-78
2022/08/12 13:06:29;;;;;;;3.72;3.00;;;;;;;33.21;21.55;101823.78;5068033;28;20041;-79
2022/08/12 13:09:01;;;;;;;3.20;3.00;;;;;;;33.16;21.56;101821.31;5072105;28;20049;-80
2022/08/12 13:11:30;;;;;;;4.22;3.15;;;;;;;33.08;22.00;101813.88;5069521;28;20506;-79
2022/08/12 13:14:08;;;;;;;3.33;3.00;;;;;;;33.05;22.33;101815.03;5070659;28;20076;-78
2022/08/12 13:16:55;;;;;;;6.07;2.90;;;;;;;33.10;21.72;101816.06;5070546;28;20080;-78
2022/08/12 13:19:23;;;;;;;5.22;2.80;;;;;;;32.93;22.00;101819.59;5054136;28;20497;-80
2022/08/12 13:22:16;;;;;;;6.03;3.40;;;;;;;32.87;21.42;101812.88;5070710;28;20057;-77
2022/08/12 13:24:46;;;;;;;3.03;2.83;;;;;;;32.77;22.11;101808.06;5070539;28;20053;-78
2022/08/12 13:27:22;;;;;;;3.55;3.22;;;;;;;32.81;22.42;101807.63;5070478;28;20421;-75
2022/08/12 13:30:00;;;;;;;3.45;3.25;;;;;;;32.71;22.72;101806.84;5072737;28;20053;-76
2022/08/12 13:32:32;;;;;;;3.28;2.97;;;;;;;32.66;22.31;101808.56;5071538;28;20512;-77
2022/08/12 13:35:01;;;;;;;3.80;3.00;;;;;;;32.62;22.93;101802.72;5070691;28;20501;-75
2022/08/12 13:37:54;;;;;;;5.10;3.05;;;;;;;32.57;22.54;101803.69;5070747;28;20420;-77
2022/08/12 13:40:26;;;;;;;3.85;3.00;;;;;;;32.55;22.58;101797.31;5072817;28;20045;-78
2022/08/12 13:42:57;;;;;;;3.85;2.97;;;;;;;32.48;22.73;101799.56;5053616;28;20547;-78
2022/08/12 13:45:26;;;;;;;3.22;2.92;;;;;;;32.54;22.85;101799.31;5072528;28;20119;-74
2022/08/12 13:48:03;;;;;;;6.13;3.17;;;;;;;32.59;22.48;101803.13;5071039;28;20037;-75